createdAt,value
2023-03-31T00:01:09.662Z,8.70
2023-03-31T00:03:39.239Z,8.60
2023-03-31T00:06:07.109Z,8.60
2023-03-31T00:08:37.619Z,8.60
2023-03-31T00:11:07.764Z,8.50
2023-03-31T00:13:37.066Z,8.50
2023-03-31T00:16:10.055Z,8.50
2023-03-31T00:18:41.030Z,8.40
2023-03-31T00:21:24.952Z,8.40
2023-03-31T00:24:04.937Z,8.30
2023-03-31T00:26:33.717Z,8.20
2023-03-31T00:29:01.704Z,8.20
2023-03-31T00:31:29.792Z,8.20
2023-03-31T00:33:57.885Z,8.10
2023-03-31T00:36:31.992Z,8.10
2023-03-31T00:39:08.515Z,8.20
2023-03-31T00:41:39.532Z,8.10
2023-03-31T00:44:09.053Z,8.10
2023-03-31T00:47:18.308Z,8.10
2023-03-31T00:49:49.122Z,8.10
2023-03-31T00:52:19.735Z,8.10
2023-03-31T00:54:50.791Z,8.00
2023-03-31T00:57:46.941Z,8.00
2023-03-31T01:00:16.985Z,8.00
2023-03-31T01:02:58.257Z,8.00
2023-03-31T01:05:50.297Z,8.00
2023-03-31T01:08:19.225Z,8.00
2023-03-31T01:10:52.764Z,8.00
2023-03-31T01:13:21.614Z,8.00
2023-03-31T01:15:48.865Z,8.00
2023-03-31T01:18:46.400Z,7.90
2023-03-31T01:22:10.015Z,7.90
2023-03-31T01:24:52.024Z,7.90
2023-03-31T01:27:31.246Z,7.90
2023-03-31T01:30:12.461Z,7.90
2023-03-31T01:33:09.722Z,7.90
2023-03-31T01:35:51.177Z,7.90
2023-03-31T01:38:24.634Z,7.80
2023-03-31T01:40:51.976Z,7.80
2023-03-31T01:43:48.452Z,7.80
2023-03-31T01:46:41.372Z,7.70
2023-03-31T01:49:34.606Z,7.70
2023-03-31T01:52:20.646Z,7.60
2023-03-31T01:59:09.531Z,7.50
2023-03-31T02:01:51.796Z,7.50
2023-03-31T02:04:50.939Z,7.50
2023-03-31T02:07:25.053Z,7.40
2023-03-31T02:09:59.315Z,7.40
2023-03-31T02:12:31.327Z,7.40
2023-03-31T02:15:01.546Z,7.30
2023-03-31T02:17:32.997Z,7.30
2023-03-31T02:20:05.861Z,7.20
2023-03-31T02:22:37.780Z,7.30
2023-03-31T02:25:09.024Z,7.20
2023-03-31T02:27:43.242Z,7.10
2023-03-31T02:30:13.101Z,7.10
2023-03-31T02:32:42.648Z,7.00
2023-03-31T02:35:19.136Z,7.00
2023-03-31T02:37:47.066Z,6.90
2023-03-31T02:40:20.611Z,6.90
2023-03-31T02:42:48.842Z,6.90
2023-03-31T02:45:44.309Z,6.90
2023-03-31T02:48:17.788Z,6.90
2023-03-31T02:51:22.833Z,6.80
2023-03-31T02:53:56.177Z,6.80
2023-03-31T02:56:52.375Z,6.80
2023-03-31T02:59:25.639Z,6.60
2023-03-31T03:02:24.448Z,6.60
2023-03-31T03:05:13.936Z,6.60
2023-03-31T03:08:12.511Z,6.50
2023-03-31T03:10:54.960Z,6.50
2023-03-31T03:13:52.858Z,6.50
2023-03-31T03:16:44.617Z,6.50
2023-03-31T03:19:37.059Z,6.50
2023-03-31T03:22:04.720Z,6.40
2023-03-31T03:24:34.527Z,6.40
2023-03-31T03:27:02.880Z,6.30
2023-03-31T03:29:30.096Z,6.30
2023-03-31T03:31:57.399Z,6.30
2023-03-31T03:34:25.782Z,6.20
2023-03-31T03:36:53.124Z,6.20
2023-03-31T03:39:20.677Z,6.20
2023-03-31T03:41:48.064Z,6.20
2023-03-31T03:44:15.503Z,6.10
2023-03-31T03:46:42.759Z,6.10
2023-03-31T03:49:10.280Z,6.10
2023-03-31T03:51:37.676Z,6.00
2023-03-31T03:54:05.230Z,6.00
2023-03-31T03:56:32.467Z,6.00
2023-03-31T03:58:59.806Z,6.00
2023-03-31T04:01:27.046Z,5.90
2023-03-31T04:03:54.243Z,5.80
2023-03-31T04:06:21.693Z,5.80
2023-03-31T04:08:49.078Z,5.70
2023-03-31T04:11:19.185Z,5.60
2023-03-31T04:13:47.752Z,5.60
2023-03-31T04:16:25.793Z,5.60
2023-03-31T04:18:59.172Z,5.60
2023-03-31T04:21:26.461Z,5.60
2023-03-31T04:24:22.082Z,5.50
2023-03-31T04:26:50.971Z,5.50
2023-03-31T04:29:20.763Z,5.50
2023-03-31T04:31:48.418Z,5.50
2023-03-31T04:34:16.068Z,5.40
2023-03-31T04:36:47.929Z,5.40
2023-03-31T04:39:18.290Z,5.40
2023-03-31T04:41:45.663Z,5.30
2023-03-31T04:44:12.901Z,5.30
2023-03-31T04:46:40.617Z,5.40
2023-03-31T04:49:10.812Z,5.30
2023-03-31T04:51:38.144Z,5.30
2023-03-31T04:54:14.903Z,5.20
2023-03-31T04:56:43.085Z,5.20
2023-03-31T04:59:11.273Z,5.20
2023-03-31T05:01:38.762Z,5.20
2023-03-31T05:04:06.318Z,5.20
2023-03-31T05:06:34.334Z,5.20
2023-03-31T05:09:01.547Z,5.30
2023-03-31T05:11:32.046Z,5.20
2023-03-31T05:13:59.246Z,5.20
2023-03-31T05:16:26.817Z,5.20
2023-03-31T05:18:55.529Z,5.20
2023-03-31T05:21:23.119Z,5.20
2023-03-31T05:23:51.181Z,5.20
2023-03-31T05:26:18.733Z,5.30
2023-03-31T05:29:10.980Z,5.30
2023-03-31T05:31:38.318Z,5.20
2023-03-31T05:34:05.774Z,5.20
2023-03-31T05:36:32.999Z,5.30
2023-03-31T05:39:00.513Z,5.30
2023-03-31T05:41:33.992Z,5.30
2023-03-31T05:44:02.291Z,5.30
2023-03-31T05:46:29.497Z,5.30
2023-03-31T05:48:56.947Z,5.30
2023-03-31T05:51:24.221Z,5.40
2023-03-31T05:53:51.552Z,5.40
2023-03-31T05:56:18.709Z,5.50
2023-03-31T05:58:46.520Z,5.50
2023-03-31T06:01:19.897Z,5.50
2023-03-31T06:04:13.082Z,5.50
2023-03-31T06:06:44.501Z,5.50
2023-03-31T06:09:12.443Z,5.50
2023-03-31T06:12:02.232Z,5.60
2023-03-31T06:14:29.597Z,5.60
2023-03-31T06:17:21.835Z,5.60
2023-03-31T06:19:49.172Z,5.70
2023-03-31T06:22:26.040Z,5.70
2023-03-31T06:25:03.754Z,5.70
2023-03-31T06:27:31.454Z,5.80
2023-03-31T06:29:59.018Z,5.70
2023-03-31T06:32:26.268Z,5.80
2023-03-31T06:34:53.558Z,5.80
2023-03-31T06:38:23.765Z,5.80
2023-03-31T06:40:51.441Z,5.90
2023-03-31T06:43:18.881Z,6.00
2023-03-31T06:46:12.148Z,6.00
2023-03-31T06:48:39.603Z,6.10
2023-03-31T06:51:07.913Z,6.30
2023-03-31T06:53:36.224Z,6.40
2023-03-31T06:56:28.852Z,6.50
2023-03-31T06:58:57.213Z,6.60
2023-03-31T07:01:24.504Z,6.70
2023-03-31T07:03:57.844Z,7.00
2023-03-31T07:06:25.224Z,7.10
2023-03-31T07:08:52.954Z,7.10
2023-03-31T07:11:21.122Z,7.30
2023-03-31T07:13:48.533Z,7.40
2023-03-31T07:16:16.194Z,7.50
2023-03-31T07:18:43.447Z,7.60
2023-03-31T07:21:16.143Z,7.90
2023-03-31T07:23:43.291Z,8.00
2023-03-31T07:26:13.380Z,8.20
2023-03-31T07:28:42.468Z,8.30
2023-03-31T07:31:14.292Z,8.40
2023-03-31T07:34:40.764Z,8.60
2023-03-31T07:37:08.209Z,8.80
2023-03-31T07:39:37.104Z,8.90
2023-03-31T07:42:06.451Z,9.00
2023-03-31T07:44:42.983Z,9.00
2023-03-31T07:47:11.239Z,9.20
2023-03-31T07:52:20.030Z,9.50
2023-03-31T07:54:47.455Z,9.70
2023-03-31T07:57:16.862Z,10.10
2023-03-31T07:59:44.066Z,10.20
2023-03-31T08:02:13.739Z,10.30
2023-03-31T08:04:56.520Z,10.40
2023-03-31T08:07:23.792Z,10.60
2023-03-31T08:09:51.200Z,10.80
2023-03-31T08:12:18.539Z,10.90
2023-03-31T08:15:11.345Z,11.00
2023-03-31T08:17:38.985Z,11.00
2023-03-31T08:20:08.531Z,11.10
2023-03-31T08:22:39.584Z,11.10
2023-03-31T08:25:08.507Z,11.20
2023-03-31T08:27:37.877Z,11.20
2023-03-31T08:30:33.355Z,11.30
2023-03-31T08:33:00.801Z,11.50
2023-03-31T08:35:28.178Z,11.60
2023-03-31T08:37:55.444Z,11.70
2023-03-31T08:40:29.479Z,12.00
2023-03-31T08:43:08.945Z,12.10
2023-03-31T08:45:44.840Z,12.20
2023-03-31T08:48:32.248Z,12.20
2023-03-31T08:51:06.301Z,12.50
2023-03-31T08:56:23.064Z,13.00
2023-03-31T08:59:02.443Z,13.10
2023-03-31T09:01:56.812Z,13.20
2023-03-31T09:05:12.822Z,13.30
2023-03-31T09:08:25.607Z,13.40
2023-03-31T09:11:04.863Z,13.50
2023-03-31T09:13:47.148Z,13.50
2023-03-31T09:16:18.638Z,13.60
2023-03-31T09:18:47.187Z,13.80
2023-03-31T09:21:20.813Z,14.00
2023-03-31T09:24:17.045Z,14.30
2023-03-31T09:27:06.283Z,14.60
2023-03-31T09:29:45.949Z,14.70
2023-03-31T09:32:26.423Z,14.90
2023-03-31T09:34:58.239Z,15.00
2023-03-31T09:37:30.361Z,15.10
2023-03-31T09:40:01.529Z,15.10
2023-03-31T09:42:29.063Z,15.10
2023-03-31T09:44:57.058Z,15.20
2023-03-31T09:47:44.603Z,15.30
2023-03-31T09:50:12.509Z,15.50
2023-03-31T09:53:00.967Z,15.40
2023-03-31T09:55:49.756Z,15.50
2023-03-31T09:58:24.939Z,15.70
2023-03-31T10:01:07.130Z,15.80
2023-03-31T10:03:53.997Z,15.90
2023-03-31T10:06:23.935Z,15.70
2023-03-31T10:09:11.320Z,16.00
2023-03-31T10:11:39.395Z,16.10
2023-03-31T10:14:15.138Z,16.20
2023-03-31T10:16:48.357Z,16.10
2023-03-31T10:19:23.306Z,16.00
2023-03-31T10:22:29.893Z,15.80
2023-03-31T10:25:17.050Z,15.60
2023-03-31T10:27:56.425Z,15.60
2023-03-31T10:30:34.404Z,15.50
2023-03-31T10:33:19.140Z,15.50
2023-03-31T10:36:00.429Z,15.40
2023-03-31T10:38:35.612Z,15.40
2023-03-31T10:41:03.749Z,15.40
2023-03-31T10:43:54.424Z,15.40
2023-03-31T10:46:39.400Z,15.40
2023-03-31T10:49:26.853Z,15.40
2023-03-31T10:51:59.736Z,15.30
2023-03-31T10:54:27.552Z,15.30
2023-03-31T10:57:06.434Z,15.40
2023-03-31T10:59:50.919Z,15.30
2023-03-31T11:02:54.034Z,15.30
2023-03-31T11:05:41.706Z,15.30
2023-03-31T11:08:39.879Z,15.30
2023-03-31T11:11:16.302Z,15.30
2023-03-31T11:13:43.733Z,15.30
2023-03-31T11:16:37.570Z,15.40
2023-03-31T11:19:43.408Z,15.70
2023-03-31T11:22:35.325Z,15.70
2023-03-31T11:25:21.379Z,16.00
2023-03-31T11:27:52.157Z,16.10
2023-03-31T11:30:42.757Z,16.20
2023-03-31T11:33:51.110Z,16.30
2023-03-31T11:36:31.703Z,16.30
2023-03-31T11:39:17.552Z,16.30
2023-03-31T11:41:52.344Z,16.00
2023-03-31T11:44:24.820Z,16.00
2023-03-31T11:47:08.615Z,16.20
2023-03-31T11:49:41.614Z,16.20
2023-03-31T11:52:16.272Z,16.20
2023-03-31T11:55:07.423Z,16.40
2023-03-31T11:57:41.263Z,16.40
2023-03-31T12:00:25.587Z,16.60
2023-03-31T12:03:14.308Z,16.80
2023-03-31T12:06:09.572Z,16.90
2023-03-31T12:08:47.661Z,16.90
2023-03-31T12:11:30.081Z,17.00
2023-03-31T12:14:09.770Z,17.00
2023-03-31T12:16:47.472Z,17.20
2023-03-31T12:19:22.657Z,17.30
2023-03-31T12:22:03.183Z,17.40
2023-03-31T12:24:32.507Z,17.50
2023-03-31T12:27:16.060Z,17.60
2023-03-31T12:29:54.127Z,17.60
2023-03-31T12:32:31.611Z,17.70
2023-03-31T12:35:20.414Z,17.90
2023-03-31T12:38:09.557Z,18.10
2023-03-31T12:40:55.614Z,18.10
2023-03-31T12:43:51.345Z,18.10
2023-03-31T12:46:19.008Z,18.00
2023-03-31T12:49:12.869Z,18.10
2023-03-31T12:52:25.075Z,18.20
2023-03-31T12:55:23.121Z,18.10
2023-03-31T12:58:22.302Z,17.90
2023-03-31T13:01:22.240Z,17.90
2023-03-31T13:03:49.786Z,17.90
2023-03-31T13:06:26.458Z,17.90
2023-03-31T13:09:05.958Z,17.90
2023-03-31T13:11:49.423Z,17.80
2023-03-31T13:14:21.413Z,17.60
2023-03-31T13:16:50.720Z,17.50
2023-03-31T13:19:34.844Z,17.50
2023-03-31T13:22:04.819Z,17.50
2023-03-31T13:24:34.933Z,17.60
2023-03-31T13:27:34.617Z,17.50
2023-03-31T13:30:02.117Z,17.50
2023-03-31T13:32:29.928Z,17.50
2023-03-31T13:35:07.155Z,17.50
2023-03-31T13:37:37.863Z,17.50
2023-03-31T13:40:37.054Z,17.40
2023-03-31T13:43:29.382Z,17.30
2023-03-31T13:46:26.291Z,17.30
2023-03-31T13:49:30.722Z,17.10
2023-03-31T13:52:01.487Z,17.00
2023-03-31T13:54:51.162Z,16.90
2023-03-31T13:57:37.540Z,16.80
2023-03-31T14:00:33.313Z,16.80
2023-03-31T14:03:20.161Z,16.80
2023-03-31T14:06:12.944Z,16.80
2023-03-31T14:08:54.544Z,16.80
2023-03-31T14:11:32.710Z,16.80
2023-03-31T14:14:03.810Z,16.60
2023-03-31T14:16:56.968Z,16.60
2023-03-31T14:19:53.657Z,16.60
2023-03-31T14:22:59.249Z,16.60
2023-03-31T14:25:36.488Z,16.60
2023-03-31T14:28:41.900Z,16.60
2023-03-31T14:31:54.187Z,16.50
2023-03-31T14:34:34.492Z,16.50
2023-03-31T14:37:21.373Z,16.30
2023-03-31T14:39:52.959Z,16.20
2023-03-31T14:42:25.496Z,16.30
2023-03-31T14:44:57.660Z,16.30
2023-03-31T14:47:30.708Z,16.30
2023-03-31T14:50:34.227Z,16.30
2023-03-31T14:53:02.492Z,16.40
2023-03-31T14:55:54.212Z,16.40
2023-03-31T14:58:55.847Z,16.30
2023-03-31T15:01:28.319Z,16.30
2023-03-31T15:03:56.319Z,16.30
2023-03-31T15:06:27.091Z,16.30
2023-03-31T15:08:57.886Z,16.40
2023-03-31T15:11:28.187Z,16.30
2023-03-31T15:14:05.525Z,16.30
2023-03-31T15:16:45.513Z,16.30
2023-03-31T15:19:25.252Z,16.30
2023-03-31T15:22:10.788Z,16.30
2023-03-31T15:24:38.014Z,16.30
2023-03-31T15:27:38.031Z,16.20
2023-03-31T15:30:20.640Z,16.20
2023-03-31T15:32:48.028Z,16.10
2023-03-31T15:35:36.166Z,16.10
2023-03-31T15:38:06.051Z,16.10
2023-03-31T15:40:40.374Z,16.00
2023-03-31T15:43:26.481Z,16.00
2023-03-31T15:45:55.836Z,16.00
2023-03-31T15:48:49.738Z,16.00
2023-03-31T15:51:41.299Z,15.90
2023-03-31T15:54:40.273Z,15.90
2023-03-31T15:57:09.583Z,15.90
2023-03-31T15:59:55.903Z,15.80
2023-03-31T16:02:27.185Z,15.70
2023-03-31T16:04:58.003Z,15.70
2023-03-31T16:07:30.027Z,15.80
2023-03-31T16:10:16.445Z,15.70
2023-03-31T16:12:55.567Z,15.70
2023-03-31T16:15:35.574Z,15.60
2023-03-31T16:18:17.401Z,15.60
2023-03-31T16:20:54.215Z,15.60
2023-03-31T16:23:28.484Z,15.60
2023-03-31T16:26:00.132Z,15.50
2023-03-31T16:28:50.166Z,15.50
2023-03-31T16:31:39.904Z,15.50
2023-03-31T16:34:09.886Z,15.40
2023-03-31T16:36:37.491Z,15.30
2023-03-31T16:39:06.864Z,15.30
2023-03-31T16:41:36.130Z,15.30
2023-03-31T16:44:03.913Z,15.10
2023-03-31T16:46:31.459Z,14.70
2023-03-31T16:48:59.008Z,14.60
2023-03-31T16:51:26.462Z,14.50
2023-03-31T16:53:53.745Z,14.20
2023-03-31T16:56:22.494Z,14.00
2023-03-31T16:58:50.235Z,13.70
2023-03-31T17:01:18.056Z,13.60
2023-03-31T17:03:47.641Z,13.30
2023-03-31T17:06:15.589Z,13.00
2023-03-31T17:08:43.736Z,12.70
2023-03-31T17:11:14.552Z,12.60
2023-03-31T17:13:43.944Z,12.60
2023-03-31T17:16:22.001Z,12.50
2023-03-31T17:18:57.365Z,12.50
2023-03-31T17:21:26.504Z,12.30
2023-03-31T17:23:55.067Z,12.20
2023-03-31T17:26:24.703Z,12.10
2023-03-31T17:28:51.983Z,12.20
2023-03-31T17:31:21.269Z,12.20
2023-03-31T17:33:49.102Z,12.10
2023-03-31T17:36:18.008Z,12.00
2023-03-31T17:38:46.778Z,11.90
2023-03-31T17:41:22.996Z,11.80
2023-03-31T17:43:50.699Z,11.70
2023-03-31T17:46:19.640Z,11.70
2023-03-31T17:48:48.016Z,11.70
2023-03-31T17:51:18.260Z,11.70
2023-03-31T17:53:48.201Z,11.70
2023-03-31T17:56:17.697Z,11.60
2023-03-31T17:58:46.461Z,11.50
2023-03-31T18:01:14.956Z,11.40
2023-03-31T18:03:42.926Z,11.30
2023-03-31T18:06:12.998Z,11.20
2023-03-31T18:08:42.560Z,11.30
2023-03-31T18:11:13.466Z,11.30
2023-03-31T18:13:41.960Z,11.30
2023-03-31T18:16:17.314Z,11.30
2023-03-31T18:18:45.211Z,11.20
2023-03-31T18:21:14.809Z,11.10
2023-03-31T18:23:42.577Z,11.00
2023-03-31T18:26:14.105Z,11.00
2023-03-31T18:29:05.167Z,11.00
2023-03-31T18:31:33.280Z,10.90
2023-03-31T18:34:01.140Z,10.80
2023-03-31T18:36:32.024Z,10.90
2023-03-31T18:39:01.710Z,10.90
2023-03-31T18:41:31.006Z,10.80
2023-03-31T18:43:59.202Z,10.80
2023-03-31T18:46:27.425Z,10.70
2023-03-31T18:48:56.205Z,10.70
2023-03-31T18:51:24.551Z,10.70
2023-03-31T18:53:52.577Z,10.70
2023-03-31T18:56:23.693Z,10.70
2023-03-31T18:58:57.967Z,10.50
2023-03-31T19:01:31.846Z,10.50
2023-03-31T19:04:01.235Z,10.50
2023-03-31T19:06:31.761Z,10.40
2023-03-31T19:09:01.321Z,10.40
2023-03-31T19:11:29.683Z,10.40
2023-03-31T19:13:57.708Z,10.30
2023-03-31T19:16:27.323Z,10.20
2023-03-31T19:18:59.882Z,10.30
2023-03-31T19:21:33.065Z,10.30
2023-03-31T19:24:03.551Z,10.20
2023-03-31T19:26:31.717Z,10.20
2023-03-31T19:29:00.008Z,10.20
2023-03-31T19:31:28.585Z,10.20
2023-03-31T19:33:58.377Z,10.10
2023-03-31T19:36:26.642Z,10.20
2023-03-31T19:38:54.726Z,10.20
2023-03-31T19:41:23.025Z,10.10
2023-03-31T19:44:18.064Z,10.10
2023-03-31T19:46:48.583Z,10.00
2023-03-31T19:49:18.557Z,10.00
2023-03-31T19:51:48.419Z,10.00
2023-03-31T19:54:18.027Z,9.90
2023-03-31T19:56:47.916Z,9.90
2023-03-31T19:59:15.766Z,9.80
2023-03-31T20:01:43.977Z,9.90
2023-03-31T20:04:12.709Z,9.80
2023-03-31T20:06:41.422Z,9.80
2023-03-31T20:09:10.577Z,9.70
2023-03-31T20:11:39.060Z,9.80
2023-03-31T20:14:12.711Z,9.80
2023-03-31T20:16:41.374Z,9.70
2023-03-31T20:19:17.164Z,9.70
2023-03-31T20:21:46.334Z,9.60
2023-03-31T20:24:19.160Z,9.70
2023-03-31T20:26:49.166Z,9.60
2023-03-31T20:29:17.939Z,9.60
2023-03-31T20:31:47.405Z,9.60
2023-03-31T20:34:17.504Z,9.60
2023-03-31T20:36:49.510Z,9.60
2023-03-31T20:39:23.069Z,9.60
2023-03-31T20:41:51.484Z,9.60
2023-03-31T20:44:19.330Z,9.60
2023-03-31T20:46:47.693Z,9.60
2023-03-31T20:49:15.381Z,9.50
2023-03-31T20:51:43.190Z,9.40
2023-03-31T20:54:11.026Z,9.40
2023-03-31T20:56:46.015Z,9.40
2023-03-31T20:59:15.540Z,9.40
2023-03-31T21:01:43.213Z,9.40
2023-03-31T21:04:11.710Z,9.40
2023-03-31T21:06:42.608Z,9.30
2023-03-31T21:09:11.864Z,9.20
2023-03-31T21:11:42.891Z,9.20
2023-03-31T21:14:14.731Z,9.20
2023-03-31T21:16:42.891Z,9.20
2023-03-31T21:19:10.550Z,9.30
2023-03-31T21:21:41.431Z,9.20
2023-03-31T21:24:11.741Z,9.20
2023-03-31T21:26:39.690Z,9.10
2023-03-31T21:29:07.408Z,9.10
2023-03-31T21:31:34.858Z,9.10
2023-03-31T21:34:05.444Z,9.10
2023-03-31T21:36:32.890Z,9.10
2023-03-31T21:39:00.195Z,9.10
2023-03-31T21:41:30.203Z,9.10
2023-03-31T21:44:00.510Z,9.00
2023-03-31T21:46:31.401Z,8.90
2023-03-31T21:48:59.162Z,8.80
2023-03-31T21:51:27.199Z,8.80
2023-03-31T21:53:55.797Z,8.80
2023-03-31T21:56:24.941Z,8.80
2023-03-31T21:58:52.559Z,8.80
2023-03-31T22:01:21.874Z,8.90
2023-03-31T22:03:50.537Z,8.90
2023-03-31T22:06:18.094Z,8.90
2023-03-31T22:08:48.774Z,8.80
2023-03-31T22:11:16.221Z,8.90
2023-03-31T22:13:44.731Z,8.90
2023-03-31T22:16:17.027Z,8.80
2023-03-31T22:18:45.503Z,8.90
2023-03-31T22:21:25.687Z,8.80
2023-03-31T22:23:59.389Z,8.80
2023-03-31T22:26:28.950Z,8.80
2023-03-31T22:28:57.104Z,8.70
2023-03-31T22:31:26.367Z,8.70
2023-03-31T22:33:53.988Z,8.60
2023-03-31T22:36:21.418Z,8.60
2023-03-31T22:38:49.179Z,8.60
2023-03-31T22:41:16.887Z,8.60
2023-03-31T22:43:46.063Z,8.60
2023-03-31T22:46:14.614Z,8.60
2023-03-31T22:48:42.161Z,8.60
2023-03-31T22:51:12.143Z,8.60
2023-03-31T22:53:39.559Z,8.60
2023-03-31T22:56:10.696Z,8.60
2023-03-31T22:58:38.433Z,8.50
2023-03-31T23:01:07.101Z,8.50
2023-03-31T23:03:35.192Z,8.50
2023-03-31T23:06:06.323Z,8.50
2023-03-31T23:08:35.955Z,8.50
2023-03-31T23:11:06.094Z,8.40
2023-03-31T23:13:33.390Z,8.40
2023-03-31T23:16:13.478Z,8.40
2023-03-31T23:18:44.512Z,8.50
2023-03-31T23:21:12.238Z,8.50
2023-03-31T23:23:39.747Z,8.50
2023-03-31T23:26:07.395Z,8.50
2023-03-31T23:28:36.832Z,8.50
2023-03-31T23:31:05.667Z,8.40
2023-03-31T23:33:33.311Z,8.40
2023-03-31T23:36:04.754Z,8.20
2023-03-31T23:38:32.572Z,8.20
2023-03-31T23:41:01.000Z,8.20
2023-03-31T23:43:28.911Z,8.20
2023-03-31T23:45:56.594Z,8.30
2023-03-31T23:48:24.070Z,8.30
2023-03-31T23:50:51.549Z,8.30
2023-03-31T23:53:18.796Z,8.30
2023-03-31T23:55:59.890Z,8.30
2023-03-31T23:58:27.464Z,8.30
